Time;durP1;ratioP1;P1;durP2;ratioP2;P2;SDS_P1;SDS_P2;PMS_P1;PMS_P2;Temp;Humidity;BMP_temperature;BMP_pressure;BME280_temperature;BME280_humidity;BME280_pressure;Samples;Min_cycle;Max_cycle;Signal;HPM_P1;HPM_P2
2021/10/11 00:00:54;0.00;0.00;0.62;0.00;0.00;0.62;5.57;4.97;;;26.50;26.40;;;;;;2254668;61;20593;-67
2021/10/11 00:03:38;0.00;0.00;0.62;0.00;0.00;0.62;5.70;5.20;;;26.50;26.40;;;;;;2257754;61;20351;-66
2021/10/11 00:06:24;0.00;0.00;0.62;0.00;0.00;0.62;6.37;5.70;;;26.50;26.40;;;;;;2257229;61;20351;-67
2021/10/11 00:09:09;0.00;0.00;0.62;0.00;0.00;0.62;6.73;5.23;;;26.50;26.40;;;;;;2257724;61;20613;-66
2021/10/11 00:11:53;0.00;0.00;0.62;0.00;0.00;0.62;6.40;5.20;;;26.40;26.30;;;;;;2257154;61;20689;-64
2021/10/11 00:14:38;0.00;0.00;0.62;0.00;0.00;0.62;6.33;5.73;;;26.40;26.30;;;;;;2257710;61;20409;-66
2021/10/11 00:17:22;0.00;0.00;0.62;0.00;0.00;0.62;5.90;5.30;;;26.30;26.30;;;;;;2257570;61;20425;-66
2021/10/11 00:20:08;0.00;0.00;0.62;0.00;0.00;0.62;5.60;5.10;;;26.30;26.30;;;;;;2256810;61;20362;-66
2021/10/11 00:22:54;0.00;0.00;0.62;0.00;0.00;0.62;6.33;5.73;;;26.30;26.30;;;;;;2257851;61;20351;-67
2021/10/11 00:25:39;0.00;0.00;0.62;0.00;0.00;0.62;5.93;5.37;;;26.30;26.30;;;;;;2257621;61;20440;-66
2021/10/11 00:28:24;0.00;0.00;0.62;0.00;0.00;0.62;6.00;5.40;;;26.30;26.20;;;;;;2256896;61;20382;-65
2021/10/11 00:31:10;0.00;0.00;0.62;0.00;0.00;0.62;8.30;6.27;;;26.20;26.20;;;;;;2257711;61;20514;-68
2021/10/11 00:33:56;0.00;0.00;0.62;0.00;0.00;0.62;6.30;5.70;;;26.20;26.10;;;;;;2257098;61;20382;-67
2021/10/11 00:36:40;0.00;0.00;0.62;0.00;0.00;0.62;6.10;5.50;;;26.20;26.10;;;;;;2257476;61;20361;-67
2021/10/11 00:39:26;0.00;0.00;0.62;0.00;0.00;0.62;6.90;5.60;;;26.20;26.20;;;;;;2257567;61;20739;-68
2021/10/11 00:42:11;0.00;0.00;0.62;0.00;0.00;0.62;6.67;5.97;;;26.10;26.10;;;;;;2256863;61;20455;-65
2021/10/11 00:44:55;0.00;0.00;0.62;0.00;0.00;0.62;7.17;6.10;;;26.10;26.10;;;;;;2258373;61;20420;-65
2021/10/11 00:47:40;0.00;0.00;0.62;0.00;0.00;0.62;5.50;5.00;;;26.10;26.10;;;;;;2258175;61;20385;-68
2021/10/11 00:50:24;0.00;0.00;0.62;0.00;0.00;0.62;6.20;5.60;;;26.00;26.00;;;;;;2257486;61;20414;-66
2021/10/11 00:53:09;0.00;0.00;0.62;0.00;0.00;0.62;5.40;4.90;;;26.00;26.00;;;;;;2258307;61;20440;-67
2021/10/11 00:55:56;0.00;0.00;0.62;0.00;0.00;0.62;7.53;6.33;;;26.00;26.10;;;;;;2257592;61;20405;-65
2021/10/11 00:58:40;0.00;0.00;0.62;0.00;0.00;0.62;6.50;5.87;;;26.00;26.00;;;;;;2257771;61;20494;-68
2021/10/11 01:01:25;0.00;0.00;0.62;0.00;0.00;0.62;6.83;6.13;;;26.00;26.10;;;;;;2258291;61;20591;-64
2021/10/11 01:04:09;0.00;0.00;0.62;0.00;0.00;0.62;6.50;5.70;;;25.90;26.00;;;;;;2257626;61;20358;-67
2021/10/11 01:06:54;0.00;0.00;0.62;0.00;0.00;0.62;7.53;6.47;;;25.90;26.00;;;;;;2258143;61;20362;-65
2021/10/11 01:09:39;0.00;0.00;0.62;0.00;0.00;0.62;6.57;5.97;;;25.90;26.10;;;;;;2258197;61;20366;-67
2021/10/11 01:12:25;0.00;0.00;0.62;0.00;0.00;0.62;7.07;6.40;;;25.80;26.00;;;;;;2257743;61;20378;-67
2021/10/11 01:15:09;0.00;0.00;0.62;0.00;0.00;0.62;7.63;6.80;;;25.80;26.00;;;;;;2258057;61;20362;-68
2021/10/11 01:17:54;0.00;0.00;0.62;0.00;0.00;0.62;7.70;6.90;;;25.80;26.00;;;;;;2257807;61;20386;-65
2021/10/11 01:20:40;0.00;0.00;0.62;0.00;0.00;0.62;8.00;6.10;;;25.80;26.00;;;;;;2257857;61;20454;-67
2021/10/11 01:23:26;0.00;0.00;0.62;0.00;0.00;0.62;8.57;7.07;;;25.80;26.00;;;;;;2258319;61;20371;-65
2021/10/11 01:26:10;0.00;0.00;0.62;0.00;0.00;0.62;7.87;6.87;;;25.70;26.00;;;;;;2257691;61;20437;-68
2021/10/11 01:28:55;0.00;0.00;0.62;0.00;0.00;0.62;7.03;6.23;;;25.70;26.10;;;;;;2258208;61;20378;-65
2021/10/11 01:31:42;0.00;0.00;0.62;0.00;0.00;0.62;7.20;6.50;;;25.70;26.00;;;;;;2258177;61;20413;-64
2021/10/11 01:34:26;0.00;0.00;0.62;0.00;0.00;0.62;7.03;6.40;;;25.70;26.60;;;;;;2257106;61;20374;-65
2021/10/11 01:37:12;0.00;0.00;0.62;0.00;0.00;0.62;6.70;6.00;;;25.60;26.00;;;;;;2258138;61;20434;-68
2021/10/11 01:39:56;0.00;0.00;0.62;0.00;0.00;0.62;6.50;5.90;;;25.60;26.00;;;;;;2258118;61;20391;-65
2021/10/11 01:42:41;0.00;0.00;0.62;0.00;0.00;0.62;8.10;6.33;;;25.60;26.00;;;;;;2257719;61;20401;-68
2021/10/11 01:45:25;0.00;0.00;0.62;0.00;0.00;0.62;7.23;6.53;;;25.60;26.00;;;;;;2258132;61;20359;-66
2021/10/11 01:48:10;0.00;0.00;0.62;0.00;0.00;0.62;6.50;5.83;;;25.50;26.00;;;;;;2257493;61;20630;-68
2021/10/11 01:50:54;0.00;0.00;0.62;0.00;0.00;0.62;6.60;6.00;;;25.50;26.00;;;;;;2257962;61;20583;-65
2021/10/11 01:53:40;0.00;0.00;0.62;0.00;0.00;0.62;8.40;7.23;;;25.50;26.00;;;;;;2258146;61;20478;-68
2021/10/11 01:56:25;0.00;0.00;0.62;0.00;0.00;0.62;7.87;6.90;;;25.50;26.00;;;;;;2256871;61;20418;-68
2021/10/11 01:59:09;0.00;0.00;0.62;0.00;0.00;0.62;7.27;6.57;;;25.50;26.00;;;;;;2258016;61;20390;-67
2021/10/11 02:01:54;0.00;0.00;0.62;0.00;0.00;0.62;7.50;6.43;;;25.40;26.00;;;;;;2258191;61;20628;-68
2021/10/11 02:04:38;0.00;0.00;0.62;0.00;0.00;0.62;7.70;6.97;;;25.40;26.00;;;;;;2257415;61;20363;-66
2021/10/11 02:07:23;0.00;0.00;0.62;0.00;0.00;0.62;6.83;6.20;;;25.40;26.00;;;;;;2257924;61;20383;-66
2021/10/11 02:10:09;0.00;0.00;0.62;0.00;0.00;0.62;7.20;6.17;;;25.40;26.00;;;;;;2257698;61;20355;-67
2021/10/11 02:12:55;0.00;0.00;0.62;0.00;0.00;0.62;8.03;7.00;;;25.30;26.00;;;;;;2258075;61;20371;-66
2021/10/11 02:15:39;0.00;0.00;0.62;0.00;0.00;0.62;7.57;6.70;;;25.30;26.00;;;;;;2258121;61;20405;-67
2021/10/11 02:18:24;0.00;0.00;0.62;0.00;0.00;0.62;7.23;6.53;;;25.30;26.00;;;;;;2257064;61;20414;-67
2021/10/11 02:21:08;0.00;0.00;0.62;0.00;0.00;0.62;7.30;6.60;;;25.30;26.00;;;;;;2258078;61;20764;-65
2021/10/11 02:23:53;0.00;0.00;0.62;0.00;0.00;0.62;7.40;6.70;;;25.20;25.90;;;;;;2258165;61;20366;-66
2021/10/11 02:26:39;0.00;0.00;0.62;0.00;0.00;0.62;7.67;6.37;;;25.20;25.90;;;;;;2257045;61;20363;-66
2021/10/11 02:29:27;0.00;0.00;0.62;0.00;0.00;0.62;7.93;7.13;;;25.20;25.90;;;;;;2258074;61;20363;-67
2021/10/11 02:32:12;0.00;0.00;0.62;0.00;0.00;0.62;7.67;6.87;;;25.20;26.00;;;;;;2257455;61;20390;-68
2021/10/11 02:34:58;0.00;0.00;0.62;0.00;0.00;0.62;8.13;6.93;;;25.20;26.00;;;;;;2257756;61;20884;-66
2021/10/11 02:37:43;0.00;0.00;0.62;0.00;0.00;0.62;7.33;6.63;;;25.20;26.00;;;;;;2257978;61;20769;-68
2021/10/11 02:40:28;0.00;0.00;0.62;0.00;0.00;0.62;7.27;6.53;;;25.10;26.00;;;;;;2257379;61;20451;-66
2021/10/11 02:43:14;0.00;0.00;0.62;0.00;0.00;0.62;7.90;6.83;;;25.10;26.00;;;;;;2258133;61;20715;-66
2021/10/11 02:45:59;0.00;0.00;0.62;0.00;0.00;0.62;7.23;6.57;;;25.10;26.00;;;;;;2257991;61;20434;-65
2021/10/11 02:48:44;0.00;0.00;0.62;0.00;0.00;0.62;7.73;6.93;;;25.10;26.00;;;;;;2257171;61;20418;-67
2021/10/11 02:51:29;0.00;0.00;0.62;0.00;0.00;0.62;7.63;6.80;;;25.10;26.10;;;;;;2254928;61;20362;-68
2021/10/11 02:54:17;0.00;0.00;0.62;0.00;0.00;0.62;8.13;6.60;;;25.00;26.00;;;;;;2257709;61;20370;-66
2021/10/11 02:57:01;0.00;0.00;0.62;0.00;0.00;0.62;7.27;6.60;;;25.00;26.10;;;;;;2257383;61;20363;-68
2021/10/11 02:59:47;0.00;0.00;0.62;0.00;0.00;0.62;7.70;6.90;;;25.00;26.10;;;;;;2257962;61;20418;-67
2021/10/11 03:02:32;0.00;0.00;0.62;0.00;0.00;0.62;7.93;7.13;;;25.00;26.20;;;;;;2257278;61;20473;-65
2021/10/11 03:05:17;0.00;0.00;0.62;0.00;0.00;0.62;8.00;7.17;;;25.00;26.20;;;;;;2258117;61;20431;-66
2021/10/11 03:08:01;0.00;0.00;0.62;0.00;0.00;0.62;8.60;7.70;;;25.00;26.20;;;;;;2257737;61;20418;-68
2021/10/11 03:10:46;0.00;0.00;0.62;0.00;0.00;0.62;8.73;7.80;;;25.00;26.20;;;;;;2256950;61;20382;-68
2021/10/11 03:13:30;0.00;0.00;0.62;0.00;0.00;0.62;8.40;7.60;;;24.90;26.10;;;;;;2257821;61;20402;-67
2021/10/11 03:16:17;0.00;0.00;0.62;0.00;0.00;0.62;8.47;7.57;;;24.90;26.20;;;;;;2257596;61;20397;-66
2021/10/11 03:19:02;0.00;0.00;0.62;0.00;0.00;0.62;8.63;7.80;;;24.90;26.20;;;;;;2257496;61;20386;-66
2021/10/11 03:21:46;0.00;0.00;0.62;0.00;0.00;0.62;8.87;7.93;;;24.90;26.30;;;;;;2257794;61;20394;-66
2021/10/11 03:24:31;0.00;0.00;0.62;0.00;0.00;0.62;9.03;7.37;;;24.90;26.30;;;;;;2257155;61;20367;-67
2021/10/11 03:27:15;0.00;0.00;0.62;0.00;0.00;0.62;10.07;9.07;;;24.80;26.30;;;;;;2257635;61;20417;-65
2021/10/11 03:30:00;0.00;0.00;0.62;0.00;0.00;0.62;9.17;8.27;;;24.80;26.30;;;;;;2257852;61;20359;-67
2021/10/11 03:32:46;0.00;0.00;0.62;0.00;0.00;0.62;9.30;8.27;;;24.80;26.40;;;;;;2256870;61;20739;-66
2021/10/11 03:35:30;0.00;0.00;0.62;0.00;0.00;0.62;9.03;8.10;;;24.80;26.40;;;;;;2257774;61;20371;-67
2021/10/11 03:38:15;0.00;0.00;0.62;0.00;0.00;0.62;9.00;8.10;;;24.80;26.50;;;;;;2254557;61;20434;-66
2021/10/11 03:40:59;0.00;0.00;0.62;0.00;0.00;0.62;8.80;8.00;;;24.80;26.50;;;;;;2257231;61;20366;-66
2021/10/11 03:43:44;0.00;0.00;0.62;0.00;0.00;0.62;10.07;9.00;;;24.70;26.50;;;;;;2257621;61;20375;-67
2021/10/11 03:46:28;0.00;0.00;0.62;0.00;0.00;0.62;8.87;8.07;;;24.70;26.50;;;;;;2257140;61;20439;-66
2021/10/11 03:49:14;0.00;0.00;0.62;0.00;0.00;0.62;9.90;8.90;;;24.70;26.60;;;;;;2257426;61;20418;-65
2021/10/11 03:51:58;0.00;0.00;0.62;0.00;0.00;0.62;8.97;8.17;;;24.70;26.60;;;;;;2257619;61;20366;-68
2021/10/11 03:54:43;0.00;0.00;0.62;0.00;0.00;0.62;9.60;8.67;;;24.70;26.60;;;;;;2256795;61;20707;-67
2021/10/11 03:57:27;0.00;0.00;0.62;0.00;0.00;0.62;9.47;8.50;;;24.70;26.70;;;;;;2257644;61;20750;-66
2021/10/11 04:00:13;0.00;0.00;0.62;0.00;0.00;0.62;8.70;7.87;;;24.70;26.70;;;;;;2254496;61;20394;-68
2021/10/11 04:02:58;0.00;0.00;0.62;0.00;0.00;0.62;9.27;8.37;;;24.70;26.70;;;;;;2256903;61;20366;-67
2021/10/11 04:05:44;0.00;0.00;0.62;0.00;0.00;0.62;10.00;8.77;;;24.60;26.70;;;;;;2257677;61;20474;-67
2021/10/11 04:08:35;0.00;0.00;0.62;0.00;0.00;0.62;8.70;7.80;;;24.60;26.70;;;;;;2257180;61;20277;-67
2021/10/11 04:14:05;0.00;0.00;0.62;0.00;0.00;0.62;8.03;7.23;;;24.60;26.80;;;;;;2254460;61;20446;-68
2021/10/11 04:16:50;0.00;0.00;0.62;0.00;0.00;0.62;9.03;8.13;;;24.60;26.80;;;;;;2256562;61;20431;-68
2021/10/11 04:19:34;0.00;0.00;0.62;0.00;0.00;0.62;7.63;6.83;;;24.60;26.80;;;;;;2258205;61;20607;-66
2021/10/11 04:22:20;0.00;0.00;0.62;0.00;0.00;0.62;8.57;7.77;;;24.60;26.90;;;;;;2258398;61;20592;-66
2021/10/11 04:25:06;0.00;0.00;0.62;0.00;0.00;0.62;8.47;7.43;;;24.60;26.90;;;;;;2257579;61;20366;-68
2021/10/11 04:27:51;0.00;0.00;0.62;0.00;0.00;0.62;7.70;7.00;;;24.60;27.00;;;;;;2258345;61;20490;-68
2021/10/11 04:30:35;0.00;0.00;0.62;0.00;0.00;0.62;7.97;7.20;;;24.60;27.00;;;;;;2257942;61;20357;-68
2021/10/11 04:33:21;0.00;0.00;0.62;0.00;0.00;0.62;8.90;8.00;;;24.60;27.00;;;;;;2258010;61;20355;-64
2021/10/11 04:36:05;0.00;0.00;0.62;0.00;0.00;0.62;10.73;9.63;;;24.50;27.00;;;;;;2258268;61;20363;-69
2021/10/11 04:38:51;0.00;0.00;0.62;0.00;0.00;0.62;10.10;8.77;;;24.60;27.20;;;;;;2257417;61;20426;-68
2021/10/11 04:41:36;0.00;0.00;0.62;0.00;0.00;0.62;12.30;11.10;;;24.50;27.10;;;;;;2258292;61;20368;-70
2021/10/11 04:44:21;0.00;0.00;0.62;0.00;0.00;0.62;9.23;8.10;;;24.50;27.20;;;;;;2258433;61;20480;-69
2021/10/11 04:47:05;0.00;0.00;0.62;0.00;0.00;0.62;9.37;8.47;;;24.50;27.30;;;;;;2253933;61;20362;-69
2021/10/11 04:49:50;0.00;0.00;0.62;0.00;0.00;0.62;8.87;7.90;;;24.50;27.30;;;;;;2258059;61;20734;-64
2021/10/11 04:52:34;0.00;0.00;0.62;0.00;0.00;0.62;8.90;8.10;;;24.50;27.30;;;;;;2257720;61;20362;-70
2021/10/11 04:55:21;0.00;0.00;0.62;0.00;0.00;0.62;8.20;7.30;;;24.40;27.20;;;;;;2257801;61;20362;-65
2021/10/11 04:58:06;0.00;0.00;0.62;0.00;0.00;0.62;10.47;8.23;;;24.50;27.30;;;;;;2258181;61;20387;-68
2021/10/11 05:00:50;0.00;0.00;0.62;0.00;0.00;0.62;8.57;7.73;;;24.40;27.30;;;;;;2257367;61;20844;-69
2021/10/11 05:03:35;0.00;0.00;0.62;0.00;0.00;0.62;8.27;7.47;;;24.40;27.30;;;;;;2258275;61;20422;-68
2021/10/11 05:06:19;0.00;0.00;0.62;0.00;0.00;0.62;8.50;7.70;;;24.40;27.30;;;;;;2258276;61;20655;-66
2021/10/11 05:09:03;0.00;0.00;0.62;0.00;0.00;0.62;8.03;7.17;;;24.40;27.30;;;;;;2257160;61;20397;-69
2021/10/11 05:11:49;0.00;0.00;0.62;0.00;0.00;0.62;9.03;8.13;;;24.40;27.40;;;;;;2257222;61;20374;-69
2021/10/11 05:14:34;0.00;0.00;0.62;0.00;0.00;0.62;10.23;7.10;;;24.50;27.50;;;;;;2261772;61;20370;-70
2021/10/11 05:17:18;0.00;0.00;0.62;0.00;0.00;0.62;7.53;6.83;;;24.40;27.40;;;;;;2261634;61;20652;-70
2021/10/11 05:20:04;0.00;0.00;0.62;0.00;0.00;0.62;7.57;6.87;;;24.40;27.40;;;;;;2262189;61;20608;-67
2021/10/11 05:22:49;0.00;0.00;0.62;0.00;0.00;0.62;7.80;7.00;;;24.40;27.40;;;;;;2261113;61;20616;-66
2021/10/11 05:25:34;0.00;0.00;0.62;0.00;0.00;0.62;9.50;6.73;;;24.40;27.40;;;;;;2261911;61;20393;-68
2021/10/11 05:28:20;0.00;0.00;0.62;0.00;0.00;0.62;9.10;7.90;;;24.40;27.40;;;;;;2262104;61;20730;-68
2021/10/11 05:31:06;0.00;0.00;0.62;0.00;0.00;0.62;8.50;7.63;;;24.40;27.50;;;;;;2261192;61;20601;-67
2021/10/11 05:33:51;0.00;0.00;0.62;0.00;0.00;0.62;8.53;7.50;;;24.40;27.50;;;;;;2262116;61;20757;-66
2021/10/11 05:36:36;0.00;0.00;0.62;0.00;0.00;0.62;8.43;7.63;;;24.40;27.50;;;;;;2262108;61;20433;-65
2021/10/11 05:39:20;0.00;0.00;0.62;0.00;0.00;0.62;9.00;7.53;;;24.40;27.50;;;;;;2261433;61;20373;-65
2021/10/11 05:42:06;0.00;0.00;0.62;0.00;0.00;0.62;8.63;7.33;;;24.40;27.60;;;;;;2262126;61;20362;-69
2021/10/11 05:44:52;0.00;0.00;0.62;0.00;0.00;0.62;9.80;7.37;;;24.40;27.60;;;;;;2261636;61;20572;-69
2021/10/11 05:47:36;0.00;0.00;0.62;0.00;0.00;0.62;8.60;7.73;;;24.40;27.70;;;;;;2261684;61;20401;-66
2021/10/11 05:50:21;0.00;0.00;0.62;0.00;0.00;0.62;8.63;7.50;;;24.40;27.70;;;;;;2262063;61;20350;-66
2021/10/11 05:53:05;0.00;0.00;0.62;0.00;0.00;0.62;9.10;7.60;;;24.40;27.70;;;;;;2260104;61;20434;-66
2021/10/11 05:55:50;0.00;0.00;0.62;0.00;0.00;0.62;8.00;7.20;;;24.40;27.80;;;;;;2253852;61;20404;-66
2021/10/11 05:58:35;0.00;0.00;0.62;0.00;0.00;0.62;6.70;5.97;;;24.40;27.90;;;;;;2254050;61;20392;-66
2021/10/11 06:01:20;0.00;0.00;0.62;0.00;0.00;0.62;7.33;6.40;;;24.50;27.90;;;;;;2253046;61;20600;-66
2021/10/11 06:04:05;0.00;0.00;0.62;0.00;0.00;0.62;6.67;6.07;;;24.50;27.90;;;;;;2254219;61;20352;-65
2021/10/11 06:06:49;0.00;0.00;0.62;0.00;0.00;0.62;6.30;5.70;;;24.40;27.80;;;;;;2253439;61;20411;-64
2021/10/11 06:09:34;0.00;0.00;0.62;0.00;0.00;0.62;6.10;5.50;;;24.50;28.50;;;;;;2253772;61;20403;-65
2021/10/11 06:12:18;0.00;0.00;0.62;0.00;0.00;0.62;5.83;5.20;;;24.50;27.90;;;;;;2254124;61;20371;-66
2021/10/11 06:15:04;0.00;0.00;0.62;0.00;0.00;0.62;7.03;6.37;;;24.50;27.90;;;;;;2257032;61;20440;-67
2021/10/11 06:17:50;0.00;0.00;0.62;0.00;0.00;0.62;6.67;6.03;;;24.50;27.90;;;;;;2257840;61;20793;-66
2021/10/11 06:20:35;0.00;0.00;0.62;0.00;0.00;0.62;6.40;5.80;;;24.50;27.90;;;;;;2258026;61;20479;-61
2021/10/11 06:23:19;0.00;0.00;0.62;0.00;0.00;0.62;6.57;5.97;;;24.50;27.90;;;;;;2254611;61;20374;-61
2021/10/11 06:26:04;0.00;0.00;0.62;0.00;0.00;0.62;7.67;5.90;;;24.50;27.90;;;;;;2257694;61;20435;-62
2021/10/11 06:28:49;0.00;0.00;0.62;0.00;0.00;0.62;6.93;5.37;;;24.50;28.00;;;;;;2257424;61;20598;-61
2021/10/11 06:31:34;0.00;0.00;0.62;0.00;0.00;0.62;6.73;5.07;;;24.60;28.00;;;;;;2257411;61;20351;-61
2021/10/11 06:34:21;0.00;0.00;0.62;0.00;0.00;0.62;6.30;5.47;;;24.50;28.00;;;;;;2257781;61;20434;-59
2021/10/11 06:37:06;0.00;0.00;0.62;0.00;0.00;0.62;5.90;5.23;;;24.60;28.00;;;;;;2256935;61;20425;-59
2021/10/11 06:39:50;0.00;0.00;0.62;0.00;0.00;0.62;5.70;5.10;;;24.60;28.00;;;;;;2257775;61;20451;-61
2021/10/11 06:42:35;0.00;0.00;0.62;0.00;0.00;0.62;7.40;6.17;;;24.60;28.00;;;;;;2257645;61;20409;-60
2021/10/11 06:45:20;0.00;0.00;0.62;0.00;0.00;0.62;8.80;6.20;;;24.60;28.00;;;;;;2256854;61;20583;-61
2021/10/11 06:48:05;0.00;0.00;0.62;0.00;0.00;0.62;7.10;5.00;;;24.60;28.00;;;;;;2257765;61;20378;-61
2021/10/11 06:50:50;0.00;0.00;0.62;0.00;0.00;0.62;6.57;5.93;;;24.60;28.10;;;;;;2257551;61;20524;-61
2021/10/11 06:53:36;0.00;0.00;0.62;0.00;0.00;0.62;6.07;5.47;;;24.60;28.20;;;;;;2254217;61;20359;-61
2021/10/11 06:56:20;0.00;0.00;0.62;0.00;0.00;0.62;5.90;5.30;;;24.70;28.20;;;;;;2257761;61;20398;-60
2021/10/11 06:59:05;0.00;0.00;0.62;0.00;0.00;0.62;5.63;4.70;;;24.60;28.20;;;;;;2256990;61;20610;-60
2021/10/11 07:01:49;0.00;0.00;0.62;0.00;0.00;0.62;6.20;5.60;;;24.70;28.30;;;;;;2257724;61;20359;-62
2021/10/11 07:04:34;0.00;0.00;0.62;0.00;0.00;0.62;6.17;5.57;;;24.70;28.30;;;;;;2257547;61;20703;-62
2021/10/11 07:07:22;0.00;0.00;0.62;0.00;0.00;0.62;6.30;4.63;;;24.70;28.30;;;;;;2256563;61;20402;-59
2021/10/11 07:10:09;0.00;0.00;0.62;0.00;0.00;0.62;5.27;4.83;;;24.70;28.30;;;;;;2257919;61;20367;-61
2021/10/11 07:12:53;0.00;0.00;0.62;0.00;0.00;0.62;4.70;4.30;;;24.70;28.30;;;;;;2254211;61;20355;-60
2021/10/11 07:15:38;0.00;0.00;0.62;0.00;0.00;0.62;5.27;4.70;;;24.70;28.30;;;;;;2257196;61;20359;-61
2021/10/11 07:18:22;0.00;0.00;0.62;0.00;0.00;0.62;5.30;4.80;;;24.80;28.40;;;;;;2257796;61;20414;-62
2021/10/11 07:21:07;0.00;0.00;0.62;0.00;0.00;0.62;5.93;4.93;;;24.80;28.40;;;;;;2257231;61;20623;-62
2021/10/11 07:23:53;0.00;0.00;0.62;0.00;0.00;0.62;6.07;5.27;;;24.80;28.40;;;;;;2257689;61;20410;-62
2021/10/11 07:26:39;0.00;0.00;0.62;0.00;0.00;0.62;4.20;3.60;;;24.80;28.40;;;;;;2257629;61;20359;-61
2021/10/11 07:29:24;0.00;0.00;0.62;0.00;0.00;0.62;7.50;5.10;;;24.80;28.40;;;;;;2256700;61;20359;-61
2021/10/11 07:32:09;0.00;0.00;0.62;0.00;0.00;0.62;5.20;4.33;;;24.80;28.40;;;;;;2257448;61;20727;-61
2021/10/11 07:34:54;0.00;0.00;0.62;0.00;0.00;0.62;5.27;4.40;;;24.90;28.50;;;;;;2257803;61;20438;-60
2021/10/11 07:37:39;0.00;0.00;0.62;0.00;0.00;0.62;5.60;4.70;;;24.90;28.50;;;;;;2256832;61;20379;-61
2021/10/11 07:40:25;0.00;0.00;0.62;0.00;0.00;0.62;6.80;5.03;;;24.90;28.50;;;;;;2257638;61;20442;-60
2021/10/11 07:43:10;0.00;0.00;0.62;0.00;0.00;0.62;7.17;5.63;;;24.90;28.50;;;;;;2257322;61;20363;-60
2021/10/11 07:46:01;0.00;0.00;0.62;0.00;0.00;0.62;6.37;5.73;;;24.90;28.40;;;;;;2257549;61;20447;-60
2021/10/11 07:48:46;0.00;0.00;0.62;0.00;0.00;0.62;5.60;5.00;;;25.00;28.50;;;;;;2257676;61;20771;-60
2021/10/11 07:51:31;0.00;0.00;0.62;0.00;0.00;0.62;6.50;5.77;;;24.90;28.40;;;;;;2253401;61;20398;-60
2021/10/11 07:54:16;0.00;0.00;0.62;0.00;0.00;0.62;5.80;5.10;;;25.00;28.50;;;;;;2257643;61;20355;-61
2021/10/11 07:57:04;0.00;0.00;0.62;0.00;0.00;0.62;6.37;4.50;;;25.00;28.50;;;;;;2257535;61;20370;-59
2021/10/11 07:59:48;0.00;0.00;0.62;0.00;0.00;0.62;5.20;4.70;;;25.00;28.50;;;;;;2256775;61;20390;-59
2021/10/11 08:02:33;0.00;0.00;0.62;0.00;0.00;0.62;5.37;4.80;;;25.00;28.40;;;;;;2257684;61;20613;-59
2021/10/11 08:05:17;0.00;0.00;0.62;0.00;0.00;0.62;10.13;5.00;;;25.00;28.40;;;;;;2256503;61;20390;-60
2021/10/11 08:08:02;0.00;0.00;0.62;0.00;0.00;0.62;5.50;4.70;;;25.00;28.40;;;;;;2256943;61;20614;-58
2021/10/11 08:10:46;0.00;0.00;0.62;0.00;0.00;0.62;5.87;4.83;;;25.00;28.90;;;;;;2250416;61;20351;-60
2021/10/11 08:13:32;0.00;0.00;0.62;0.00;0.00;0.62;6.30;4.50;;;25.00;28.40;;;;;;2252533;61;20364;-60
2021/10/11 08:16:17;0.00;0.00;0.62;0.00;0.00;0.62;5.80;4.53;;;25.00;28.40;;;;;;2253366;61;20851;-59
2021/10/11 08:19:01;0.00;0.00;0.62;0.00;0.00;0.62;5.47;4.90;;;25.00;28.40;;;;;;2253521;61;20720;-60
2021/10/11 08:21:46;0.00;0.00;0.62;0.00;0.00;0.62;5.93;4.40;;;25.10;28.40;;;;;;2252513;61;20358;-59
2021/10/11 08:24:31;0.00;0.00;0.62;0.00;0.00;0.62;5.10;4.60;;;25.10;28.40;;;;;;2253664;61;20419;-59
2021/10/11 08:27:18;0.00;0.00;0.62;0.00;0.00;0.62;4.30;3.83;;;25.10;28.40;;;;;;2253033;61;20403;-59
2021/10/11 08:30:06;0.00;0.00;0.62;0.00;0.00;0.62;5.87;4.23;;;25.10;28.40;;;;;;2253025;61;20487;-60
2021/10/11 08:32:51;0.00;0.00;0.62;0.00;0.00;0.62;3.60;3.30;;;25.10;28.40;;;;;;2253528;61;20363;-59
2021/10/11 08:35:36;0.00;0.00;0.62;0.00;0.00;0.62;4.80;4.30;;;25.10;28.30;;;;;;2252779;61;20392;-61
2021/10/11 08:38:20;0.00;0.00;0.62;0.00;0.00;0.62;5.70;4.73;;;25.10;28.30;;;;;;2253483;61;20805;-61
2021/10/11 08:41:07;0.00;0.00;0.62;0.00;0.00;0.62;4.67;4.00;;;25.10;28.30;;;;;;2253598;61;20363;-59
2021/10/11 08:43:52;0.00;0.00;0.62;0.00;0.00;0.62;4.20;3.80;;;25.10;28.40;;;;;;2252532;61;20356;-58
2021/10/11 08:46:38;0.00;0.00;0.62;0.00;0.00;0.62;4.97;4.47;;;25.10;28.40;;;;;;2253500;61;20364;-61
2021/10/11 08:49:24;0.00;0.00;0.62;0.00;0.00;0.62;5.20;4.70;;;25.10;28.40;;;;;;2253047;61;20436;-61
2021/10/11 08:52:09;0.00;0.00;0.62;0.00;0.00;0.62;4.70;4.20;;;25.10;28.40;;;;;;2252986;61;20395;-59
2021/10/11 08:54:54;0.00;0.00;0.62;0.00;0.00;0.62;4.70;3.90;;;25.20;28.40;;;;;;2252766;61;20797;-61
2021/10/11 08:57:39;0.00;0.00;0.62;0.00;0.00;0.62;4.20;3.80;;;25.20;28.50;;;;;;2252522;61;20621;-57
2021/10/11 09:00:24;0.00;0.00;0.62;0.00;0.00;0.62;4.17;3.73;;;25.20;28.40;;;;;;2253440;61;20458;-61
2021/10/11 09:03:16;0.00;0.00;0.62;0.00;0.00;0.62;4.90;3.77;;;25.20;28.50;;;;;;2253572;61;20767;-59
2021/10/11 09:06:06;0.00;0.00;0.62;0.00;0.00;0.62;3.93;3.53;;;25.20;28.50;;;;;;2253135;61;20736;-62
2021/10/11 09:08:51;0.00;0.00;0.62;0.00;0.00;0.62;5.60;4.23;;;25.20;28.60;;;;;;2254130;61;20422;-60
2021/10/11 09:11:36;0.00;0.00;0.62;0.00;0.00;0.62;5.83;4.20;;;25.20;28.50;;;;;;2253558;61;20560;-60
2021/10/11 09:14:22;0.00;0.00;0.62;0.00;0.00;0.62;4.00;3.53;;;25.30;28.60;;;;;;2250297;61;20395;-61
2021/10/11 09:17:06;0.00;0.00;0.62;0.00;0.00;0.62;3.63;3.20;;;25.30;28.60;;;;;;2253805;61;20564;-61
2021/10/11 09:19:58;0.00;0.00;0.62;0.00;0.00;0.62;4.57;4.00;;;25.40;28.70;;;;;;2253267;61;20383;-60
2021/10/11 09:22:45;0.00;0.00;0.62;0.00;0.00;0.62;3.93;3.53;;;25.40;28.70;;;;;;2254170;61;20790;-59
2021/10/11 09:25:36;0.00;0.00;0.62;0.00;0.00;0.62;3.20;2.83;;;25.40;28.70;;;;;;2254267;61;20644;-59
2021/10/11 09:28:20;0.00;0.00;0.62;0.00;0.00;0.62;3.30;3.00;;;25.40;28.70;;;;;;2253297;61;20379;-60
2021/10/11 09:31:10;0.00;0.00;0.62;0.00;0.00;0.62;4.13;3.33;;;25.50;28.70;;;;;;2254154;61;20411;-61
2021/10/11 09:34:00;0.00;0.00;0.62;0.00;0.00;0.62;3.53;2.87;;;25.50;28.70;;;;;;2253531;61;20359;-61
2021/10/11 09:36:55;0.00;0.00;0.62;0.00;0.00;0.62;3.37;3.07;;;25.60;28.70;;;;;;2253626;61;20418;-61
2021/10/11 09:39:41;0.00;0.00;0.62;0.00;0.00;0.62;3.87;3.27;;;25.60;28.70;;;;;;2254157;61;20388;-61
2021/10/11 09:42:29;0.00;0.00;0.62;0.00;0.00;0.62;3.37;3.07;;;25.60;28.70;;;;;;2252973;61;20767;-61
2021/10/11 09:45:14;0.00;0.00;0.62;0.00;0.00;0.62;5.00;3.50;;;25.60;28.60;;;;;;2254035;61;20404;-59
2021/10/11 09:48:06;0.00;0.00;0.62;0.00;0.00;0.62;3.60;2.87;;;25.70;28.70;;;;;;2254064;61;20427;-61
2021/10/11 09:50:50;0.00;0.00;0.62;0.00;0.00;0.62;3.90;3.37;;;25.70;28.60;;;;;;2253677;61;20415;-61
2021/10/11 09:53:36;0.00;0.00;0.62;0.00;0.00;0.62;3.70;3.07;;;25.70;28.60;;;;;;2254272;61;20363;-61
2021/10/11 09:56:26;0.00;0.00;0.62;0.00;0.00;0.62;3.77;3.13;;;25.70;28.50;;;;;;2250325;61;20840;-61
2021/10/11 09:59:11;0.00;0.00;0.62;0.00;0.00;0.62;4.07;3.37;;;25.80;28.60;;;;;;2250678;61;20375;-60
2021/10/11 10:01:57;0.00;0.00;0.62;0.00;0.00;0.62;3.07;2.77;;;25.80;28.60;;;;;;2250906;61;20641;-61
2021/10/11 10:04:42;0.00;0.00;0.62;0.00;0.00;0.62;4.70;2.90;;;25.80;28.60;;;;;;2253080;61;20363;-61
2021/10/11 10:07:33;0.00;0.00;0.62;0.00;0.00;0.62;2.87;2.57;;;25.80;28.60;;;;;;2253917;61;20419;-60
2021/10/11 10:10:23;0.00;0.00;0.62;0.00;0.00;0.62;4.00;3.10;;;25.80;28.60;;;;;;2254139;61;20460;-61
2021/10/11 10:13:15;0.00;0.00;0.62;0.00;0.00;0.62;3.23;2.80;;;25.90;28.60;;;;;;2253421;61;20813;-60
2021/10/11 10:16:08;0.00;0.00;0.62;0.00;0.00;0.62;2.97;2.67;;;25.90;28.60;;;;;;2253957;61;20364;-59
2021/10/11 10:18:53;0.00;0.00;0.62;0.00;0.00;0.62;3.30;3.00;;;25.90;28.60;;;;;;2253186;61;20652;-60
2021/10/11 10:21:39;0.00;0.00;0.62;0.00;0.00;0.62;4.00;2.40;;;26.00;28.60;;;;;;2253827;61;20576;-60
2021/10/11 10:24:27;0.00;0.00;0.62;0.00;0.00;0.62;8.17;3.80;;;26.00;28.60;;;;;;2254894;61;20477;-60
2021/10/11 10:27:14;0.00;0.00;0.62;0.00;0.00;0.62;4.87;3.53;;;26.00;28.60;;;;;;2257716;61;20638;-66
2021/10/11 10:29:59;0.00;0.00;0.62;0.00;0.00;0.62;4.33;3.13;;;26.00;28.60;;;;;;2261540;61;20458;-61
2021/10/11 10:32:57;0.00;0.00;0.62;0.00;0.00;0.62;5.57;3.20;;;26.10;28.70;;;;;;2261698;61;20403;-61
2021/10/11 10:35:47;0.00;0.00;0.62;0.00;0.00;0.62;5.90;4.07;;;26.10;28.70;;;;;;2261607;61;20734;-59
2021/10/11 10:38:32;0.00;0.00;0.62;0.00;0.00;0.62;8.27;3.40;;;26.20;28.70;;;;;;2261900;61;20378;-61
2021/10/11 10:41:20;0.00;0.00;0.62;0.00;0.00;0.62;12.70;3.80;;;26.20;28.70;;;;;;2261056;61;21004;-64
2021/10/11 10:44:20;0.00;0.00;0.62;0.00;0.00;0.62;8.63;3.87;;;26.30;28.80;;;;;;2261975;61;20394;-63
2021/10/11 10:47:05;0.00;0.00;0.62;0.00;0.00;0.62;4.90;3.70;;;26.20;28.70;;;;;;2261899;61;20362;-61
2021/10/11 10:49:50;0.00;0.00;0.62;0.00;0.00;0.62;6.70;3.90;;;26.30;28.70;;;;;;2260991;61;20762;-62
2021/10/11 10:52:35;0.00;0.00;0.62;0.00;0.00;0.62;5.90;3.67;;;26.30;28.70;;;;;;2261863;61;20751;-64
2021/10/11 10:55:21;0.00;0.00;0.62;0.00;0.00;0.62;7.13;4.00;;;26.40;28.80;;;;;;2261381;61;20573;-65